createdAt,value
2018-07-02T00:01:02.534Z,0
2018-07-02T00:02:11.821Z,0
2018-07-02T00:03:22.031Z,0
2018-07-02T00:04:32.294Z,0
2018-07-02T00:05:42.513Z,0
2018-07-02T00:06:52.752Z,0
2018-07-02T00:08:03.066Z,0
2018-07-02T00:09:13.947Z,4
2018-07-02T00:10:25.644Z,4
2018-07-02T00:11:36.445Z,4
2018-07-02T00:12:47.526Z,4
2018-07-02T00:13:57.911Z,4
2018-07-02T00:15:07.819Z,4
2018-07-02T00:16:17.464Z,4
2018-07-02T00:17:27.447Z,0
2018-07-02T00:18:37.380Z,0
2018-07-02T00:19:47.597Z,0
2018-07-02T00:20:57.834Z,4
2018-07-02T00:22:08.302Z,4
2018-07-02T00:23:18.028Z,4
2018-07-02T00:24:28.726Z,4
2018-07-02T00:25:38.665Z,4
2018-07-02T00:26:48.395Z,4
2018-07-02T00:27:58.312Z,4
2018-07-02T00:29:08.617Z,4
2018-07-02T00:30:18.538Z,4
2018-07-02T00:31:28.196Z,4
2018-07-02T00:32:38.100Z,4
2018-07-02T00:33:48.256Z,8
2018-07-02T00:34:58.219Z,4
2018-07-02T00:36:07.846Z,4
2018-07-02T00:37:17.847Z,4
2018-07-02T00:38:29.159Z,8
2018-07-02T00:39:38.793Z,8
2018-07-02T00:40:48.827Z,4
2018-07-02T00:41:58.428Z,8
2018-07-02T00:43:08.368Z,8
2018-07-02T00:44:18.281Z,8
2018-07-02T00:45:29.304Z,8
2018-07-02T00:46:39.577Z,12
2018-07-02T00:47:49.449Z,8
2018-07-02T00:48:59.805Z,12
2018-07-02T00:50:10.156Z,8
2018-07-02T00:51:20.386Z,12
2018-07-02T00:52:30.403Z,12
2018-07-02T00:53:39.743Z,12
2018-07-02T00:54:50.708Z,12
2018-07-02T00:56:01.731Z,16
2018-07-02T00:57:12.158Z,12
2018-07-02T00:58:22.458Z,16
2018-07-02T00:59:32.737Z,16
2018-07-02T01:00:42.947Z,16
2018-07-02T01:01:54.640Z,16
2018-07-02T01:03:04.259Z,20
2018-07-02T01:04:14.784Z,24
2018-07-02T01:05:25.034Z,24
2018-07-02T01:06:34.925Z,24
2018-07-02T01:07:45.185Z,28
2018-07-02T01:08:56.983Z,28
2018-07-02T01:10:07.236Z,28
2018-07-02T01:11:17.166Z,32
2018-07-02T01:12:27.056Z,32
2018-07-02T01:13:37.275Z,36
2018-07-02T01:14:48.631Z,36
2018-07-02T01:15:58.565Z,40
2018-07-02T01:17:08.572Z,44
2018-07-02T01:18:18.767Z,44
2018-07-02T01:19:28.417Z,48
2018-07-02T01:20:39.106Z,52
2018-07-02T01:21:49.881Z,56
2018-07-02T01:23:01.111Z,60
2018-07-02T01:24:11.019Z,60
2018-07-02T01:25:20.936Z,64
2018-07-02T01:26:31.506Z,72
2018-07-02T01:27:42.435Z,72
2018-07-02T01:28:53.478Z,80
2018-07-02T01:30:03.776Z,84
2018-07-02T01:31:13.751Z,92
2018-07-02T01:32:24.212Z,96
2018-07-02T01:33:34.700Z,100
2018-07-02T01:34:45.270Z,108
2018-07-02T01:35:55.260Z,116
2018-07-02T01:37:04.586Z,116
2018-07-02T01:38:14.224Z,124
2018-07-02T01:39:26.380Z,136
2018-07-02T01:40:36.076Z,140
2018-07-02T01:41:45.988Z,148
2018-07-02T01:42:56.192Z,156
2018-07-02T01:44:07.030Z,164
2018-07-02T01:45:17.853Z,176
2018-07-02T01:46:28.845Z,184
2018-07-02T01:47:38.798Z,196
2018-07-02T01:48:48.989Z,204
2018-07-02T01:50:00.479Z,216
2018-07-02T01:51:11.424Z,228
2018-07-02T01:52:22.416Z,240
2018-07-02T01:53:32.328Z,252
2018-07-02T01:54:42.247Z,260
2018-07-02T01:55:52.431Z,276
2018-07-02T01:57:03.266Z,288
2018-07-02T01:58:14.883Z,304
2018-07-02T01:59:26.039Z,316
2018-07-02T02:00:35.646Z,328
2018-07-02T02:01:45.521Z,344
2018-07-02T02:02:55.737Z,360
2018-07-02T02:04:05.893Z,376
2018-07-02T02:05:16.067Z,392
2018-07-02T02:06:27.164Z,408
2018-07-02T02:07:38.206Z,428
2018-07-02T02:08:50.094Z,444
2018-07-02T02:10:00.924Z,464
2018-07-02T02:11:10.856Z,480
2018-07-02T02:12:21.003Z,500
2018-07-02T02:13:31.183Z,516
2018-07-02T02:14:41.125Z,536
2018-07-02T02:15:51.302Z,556
2018-07-02T02:17:02.235Z,572
2018-07-02T02:18:12.838Z,592
2018-07-02T02:19:23.760Z,612
2018-07-02T02:20:34.740Z,632
2018-07-02T02:21:44.643Z,656
2018-07-02T02:22:55.162Z,676
2018-07-02T02:24:05.387Z,696
2018-07-02T02:25:14.956Z,716
2018-07-02T02:26:24.874Z,736
2018-07-02T02:27:35.883Z,756
2018-07-02T02:28:46.841Z,780
2018-07-02T02:29:58.651Z,800
2018-07-02T02:31:09.264Z,820
2018-07-02T02:32:19.542Z,844
2018-07-02T02:33:29.460Z,868
2018-07-02T02:34:39.321Z,892
2018-07-02T02:35:49.481Z,912
2018-07-02T02:36:59.354Z,932
2018-07-02T02:38:08.684Z,956
2018-07-02T02:39:20.181Z,980
2018-07-02T02:40:31.298Z,1000
2018-07-02T02:41:42.033Z,1024
2018-07-02T02:42:52.240Z,1048
2018-07-02T02:44:02.483Z,1068
2018-07-02T02:45:12.077Z,1092
2018-07-02T02:46:21.975Z,1112
2018-07-02T02:47:32.169Z,1136
2018-07-02T02:48:43.185Z,1156
2018-07-02T02:49:54.447Z,1180
2018-07-02T02:51:04.980Z,1200
2018-07-02T02:52:15.588Z,1224
2018-07-02T02:53:25.762Z,1248
2018-07-02T02:54:35.651Z,1268
2018-07-02T02:55:45.573Z,1292
2018-07-02T02:56:55.731Z,1316
2018-07-02T02:58:05.653Z,1340
2018-07-02T02:59:17.245Z,1360
2018-07-02T03:03:30.098Z,1440
2018-07-02T03:04:40.343Z,1464
2018-07-02T03:05:50.230Z,1484
2018-07-02T03:07:01.641Z,1508
2018-07-02T03:08:12.973Z,1528
2018-07-02T03:09:23.949Z,1548
2018-07-02T03:10:35.119Z,1572
2018-07-02T03:11:45.025Z,1596
2018-07-02T03:12:55.201Z,1616
2018-07-02T03:14:05.391Z,1636
2018-07-02T03:15:15.606Z,1656
2018-07-02T03:16:25.803Z,1680
2018-07-02T03:17:36.367Z,1704
2018-07-02T03:18:48.087Z,1724
2018-07-02T03:19:59.598Z,1748
2018-07-02T03:21:10.953Z,1768
2018-07-02T03:22:20.535Z,1788
2018-07-02T03:23:29.866Z,1808
2018-07-02T03:24:40.043Z,1832
2018-07-02T03:25:49.933Z,1852
2018-07-02T03:27:00.197Z,1872
2018-07-02T03:28:10.342Z,1896
2018-07-02T03:29:21.789Z,1916
2018-07-02T03:30:33.364Z,1940
2018-07-02T03:31:44.494Z,1960
2018-07-02T03:32:54.431Z,1980
2018-07-02T03:34:04.298Z,1996
2018-07-02T03:35:14.179Z,2016
2018-07-02T03:36:24.356Z,2036
2018-07-02T03:37:34.316Z,2056
2018-07-02T03:38:45.188Z,2072
2018-07-02T03:39:55.994Z,2088
2018-07-02T03:41:06.884Z,2108
2018-07-02T03:42:17.060Z,2128
2018-07-02T03:43:26.917Z,2144
2018-07-02T03:44:37.356Z,2160
2018-07-02T03:45:47.226Z,2176
2018-07-02T03:46:58.042Z,2196
2018-07-02T03:48:09.275Z,2208
2018-07-02T03:49:20.753Z,2224
2018-07-02T03:50:32.123Z,2244
2018-07-02T03:51:42.000Z,2260
2018-07-02T03:52:51.631Z,2276
2018-07-02T03:54:01.473Z,2292
2018-07-02T03:55:11.655Z,2308
2018-07-02T03:56:21.899Z,2324
2018-07-02T03:57:33.388Z,2340
2018-07-02T03:58:43.090Z,2360
2018-07-02T03:59:53.407Z,2372
2018-07-02T04:01:03.318Z,2384
2018-07-02T04:02:12.661Z,2400
2018-07-02T04:03:22.559Z,2412
2018-07-02T04:04:32.777Z,2428
2018-07-02T04:05:42.821Z,2436
2018-07-02T04:06:53.943Z,2444
2018-07-02T04:08:04.806Z,2452
2018-07-02T04:09:15.903Z,2464
2018-07-02T04:10:26.350Z,2480
2018-07-02T04:11:36.227Z,2492
2018-07-02T04:12:46.436Z,2504
2018-07-02T04:13:56.353Z,2512
2018-07-02T04:15:07.247Z,2520
2018-07-02T04:16:17.605Z,2528
2018-07-02T04:17:27.530Z,2540
2018-07-02T04:18:38.512Z,2548
2018-07-02T04:19:49.090Z,2556
2018-07-02T04:20:59.273Z,2568
2018-07-02T04:22:09.562Z,2572
2018-07-02T04:23:21.396Z,2580
2018-07-02T04:24:32.765Z,2584
2018-07-02T04:25:43.241Z,2588
2018-07-02T04:26:53.630Z,2600
2018-07-02T04:28:04.063Z,2604
2018-07-02T04:29:13.672Z,2612
2018-07-02T04:30:23.838Z,2624
2018-07-02T04:31:33.515Z,2628
2018-07-02T04:32:43.076Z,2636
2018-07-02T04:33:53.839Z,2644
2018-07-02T04:35:05.007Z,2652
2018-07-02T04:36:15.113Z,2664
2018-07-02T04:37:24.743Z,2672
2018-07-02T04:38:34.937Z,2680
2018-07-02T04:39:44.857Z,2692
2018-07-02T04:40:54.775Z,2696
2018-07-02T04:42:05.178Z,2704
2018-07-02T04:43:16.128Z,2712
2018-07-02T04:44:28.891Z,2716
2018-07-02T04:45:41.036Z,2720
2018-07-02T04:46:53.317Z,2732
2018-07-02T04:48:07.694Z,2736
2018-07-02T04:49:19.164Z,2744
2018-07-02T04:50:30.853Z,2752
2018-07-02T04:51:42.770Z,2760
2018-07-02T04:52:54.235Z,2764
2018-07-02T04:54:07.044Z,2772
2018-07-02T04:55:19.664Z,2776
2018-07-02T04:56:31.590Z,2784
2018-07-02T04:57:42.899Z,2788
2018-07-02T04:58:54.590Z,2796
2018-07-02T05:00:05.851Z,2804
2018-07-02T05:01:15.658Z,2812
2018-07-02T05:02:25.734Z,2816
2018-07-02T05:03:35.250Z,2828
2018-07-02T05:04:45.048Z,2832
2018-07-02T05:05:55.171Z,2836
2018-07-02T05:07:05.232Z,2840
2018-07-02T05:08:15.033Z,2844
2018-07-02T05:09:24.567Z,2848
2018-07-02T05:10:33.560Z,2856
2018-07-02T05:11:43.702Z,2864
2018-07-02T05:12:53.766Z,2868
2018-07-02T05:14:03.569Z,2876
2018-07-02T05:15:13.364Z,2884
2018-07-02T05:16:23.200Z,2884
2018-07-02T05:17:33.313Z,2892
2018-07-02T05:18:43.099Z,2896
2018-07-02T05:19:53.168Z,2900
2018-07-02T05:21:02.972Z,2904
2018-07-02T05:22:12.224Z,2908
2018-07-02T05:23:22.340Z,2912
2018-07-02T05:24:32.361Z,2920
2018-07-02T05:25:42.148Z,2920
2018-07-02T05:26:51.975Z,2924
2018-07-02T05:28:01.927Z,2932
2018-07-02T05:29:12.045Z,2936
2018-07-02T05:30:21.832Z,2936
2018-07-02T05:31:31.537Z,2940
2018-07-02T05:32:41.396Z,2944
2018-07-02T05:33:51.473Z,2948
2018-07-02T05:35:01.334Z,2952
2018-07-02T05:36:10.852Z,2952
2018-07-02T05:37:20.911Z,2956
2018-07-02T05:38:30.715Z,2960
2018-07-02T05:39:40.783Z,2968
2018-07-02T05:40:50.637Z,2972
2018-07-02T05:42:00.444Z,2976
2018-07-02T05:43:09.973Z,2984
2018-07-02T05:44:20.051Z,2988
2018-07-02T05:45:29.849Z,2992
2018-07-02T05:46:39.711Z,2996
2018-07-02T05:47:49.798Z,3004
2018-07-02T05:48:59.915Z,3004
2018-07-02T05:50:09.436Z,3012
2018-07-02T05:51:19.503Z,3016
2018-07-02T05:52:29.097Z,3020
2018-07-02T05:53:39.159Z,3024
2018-07-02T05:54:49.229Z,3024
2018-07-02T05:55:59.327Z,3020
2018-07-02T05:57:09.403Z,3032
2018-07-02T05:58:19.605Z,3036
2018-07-02T05:59:28.877Z,3036
2018-07-02T06:00:39.242Z,3040
2018-07-02T06:01:49.085Z,3044
2018-07-02T06:02:58.876Z,3044
2018-07-02T06:04:08.820Z,3048
2018-07-02T06:05:18.892Z,3052
2018-07-02T06:06:29.014Z,3056
2018-07-02T06:07:39.083Z,3064
2018-07-02T06:08:48.600Z,3068
2018-07-02T06:09:58.463Z,3072
2018-07-02T06:11:07.979Z,3076
2018-07-02T06:12:18.058Z,3084
2018-07-02T06:13:27.617Z,3092
2018-07-02T06:14:37.150Z,3096
2018-07-02T06:15:47.276Z,3096
2018-07-02T06:16:57.365Z,3100
2018-07-02T06:18:07.435Z,3100
2018-07-02T06:19:17.241Z,3104
2018-07-02T06:20:27.331Z,3104
2018-07-02T06:21:37.442Z,3100
2018-07-02T06:22:47.528Z,3104
2018-07-02T06:23:57.618Z,3104
2018-07-02T06:25:07.421Z,3112
2018-07-02T06:26:17.200Z,3116
2018-07-02T06:27:27.322Z,3124
2018-07-02T06:28:37.394Z,3128
2018-07-02T06:29:47.477Z,3128
2018-07-02T06:30:57.563Z,3132
2018-07-02T06:32:07.349Z,3140
2018-07-02T06:33:17.482Z,3136
2018-07-02T06:34:27.273Z,3140
2018-07-02T06:35:37.062Z,3144
2018-07-02T06:36:46.863Z,3144
2018-07-02T06:38:16.112Z,3148
2018-07-02T06:39:26.460Z,3152
2018-07-02T06:40:35.777Z,3156
2018-07-02T06:41:45.848Z,3160
2018-07-02T06:42:55.661Z,3164
2018-07-02T06:44:05.513Z,3168
2018-07-02T06:45:15.578Z,3176
2018-07-02T06:46:25.622Z,3180
2018-07-02T06:47:35.691Z,3188
2018-07-02T06:48:45.765Z,3192
2018-07-02T06:49:55.630Z,3200
2018-07-02T06:51:05.444Z,3208
2018-07-02T06:52:14.966Z,3216
2018-07-02T06:53:24.499Z,3220
2018-07-02T06:54:34.038Z,3224
2018-07-02T06:55:43.868Z,3232
2018-07-02T06:56:53.939Z,3236
2018-07-02T06:58:04.000Z,3240
2018-07-02T06:59:13.515Z,3244
2018-07-02T07:00:23.345Z,3252
2018-07-02T07:01:33.173Z,3252
2018-07-02T07:02:43.233Z,3256
2018-07-02T07:03:53.301Z,3260
2018-07-02T07:05:03.113Z,3272
2018-07-02T07:06:12.923Z,3272
2018-07-02T07:07:22.511Z,3280
2018-07-02T07:08:32.684Z,3288
2018-07-02T07:09:42.784Z,3296
2018-07-02T07:10:52.324Z,3300
2018-07-02T07:12:02.131Z,3304
2018-07-02T07:13:11.993Z,3316
2018-07-02T07:14:22.067Z,3320
2018-07-02T07:15:32.017Z,3328
2018-07-02T07:16:42.114Z,3328
2018-07-02T07:17:52.198Z,3332
2018-07-02T07:19:02.058Z,3336
2018-07-02T07:20:11.592Z,3340
2018-07-02T07:21:21.409Z,3344
2018-07-02T07:22:31.202Z,3352
2018-07-02T07:23:41.276Z,3360
2018-07-02T07:24:51.129Z,3360
2018-07-02T07:26:01.245Z,3360
2018-07-02T07:27:11.064Z,3368
2018-07-02T07:28:20.910Z,3372
2018-07-02T07:29:30.697Z,3384
2018-07-02T07:30:40.822Z,3388
2018-07-02T07:31:50.920Z,3388
2018-07-02T07:33:00.738Z,3396
2018-07-02T07:34:10.824Z,3404
2018-07-02T07:35:20.608Z,3408
2018-07-02T07:36:29.913Z,3416
2018-07-02T07:37:40.172Z,3420
2018-07-02T07:38:49.988Z,3424
2018-07-02T07:39:59.807Z,3432
2018-07-02T07:41:09.068Z,3440
2018-07-02T07:42:18.913Z,3448
2018-07-02T07:43:28.986Z,3452
2018-07-02T07:44:38.523Z,3452
2018-07-02T07:45:48.351Z,3460
2018-07-02T07:46:57.634Z,3464
2018-07-02T07:48:07.741Z,3472
2018-07-02T07:49:17.821Z,3480
2018-07-02T07:50:27.368Z,3484
2018-07-02T07:51:36.889Z,3488
2018-07-02T07:52:46.975Z,3496
2018-07-02T07:53:56.824Z,3500
2018-07-02T07:55:06.910Z,3504
2018-07-02T07:56:17.040Z,3512
2018-07-02T07:57:26.860Z,3520
2018-07-02T07:58:36.924Z,3520
2018-07-02T07:59:47.042Z,3532
2018-07-02T08:00:57.109Z,3536
2018-07-02T08:02:06.889Z,3540
2018-07-02T08:03:16.405Z,3548
2018-07-02T08:04:25.951Z,3560
2018-07-02T08:05:35.795Z,3560
2018-07-02T08:06:45.315Z,3568
2018-07-02T08:07:55.192Z,3576
2018-07-02T08:09:05.010Z,3596
2018-07-02T08:10:15.217Z,3612
2018-07-02T08:11:25.069Z,3616
2018-07-02T08:12:35.307Z,3624
2018-07-02T08:13:45.379Z,3632
2018-07-02T08:14:54.905Z,3644
2018-07-02T08:16:04.699Z,3656
2018-07-02T08:17:14.805Z,3660
2018-07-02T08:18:24.607Z,3668
2018-07-02T08:19:34.396Z,3684
2018-07-02T08:20:44.198Z,3696
2018-07-02T08:21:54.294Z,3704
2018-07-02T08:23:04.425Z,3704
2018-07-02T08:24:14.516Z,3716
2018-07-02T08:25:24.048Z,3724
2018-07-02T08:26:34.115Z,3736
2018-07-02T08:27:43.920Z,3736
2018-07-02T08:28:53.766Z,3748
2018-07-02T08:30:03.565Z,3752
2018-07-02T08:31:13.103Z,3764
2018-07-02T08:32:23.186Z,3768
2018-07-02T08:33:32.981Z,3780
2018-07-02T08:34:43.125Z,3792
2018-07-02T08:35:52.656Z,3796
2018-07-02T08:37:02.769Z,3820
2018-07-02T08:38:12.298Z,3828
2018-07-02T08:39:22.097Z,3840
2018-07-02T08:40:31.952Z,3848
2018-07-02T08:41:41.754Z,3864
2018-07-02T08:42:51.568Z,3872
2018-07-02T08:44:01.372Z,3884
2018-07-02T08:45:11.247Z,3896
2018-07-02T08:46:21.106Z,3912
2018-07-02T08:47:30.910Z,3916
2018-07-02T08:48:40.989Z,3924
2018-07-02T08:49:50.790Z,3936
2018-07-02T08:51:00.594Z,3940
2018-07-02T08:52:10.196Z,3952
2018-07-02T08:53:20.008Z,3960
2018-07-02T08:54:29.835Z,3964
2018-07-02T08:55:39.904Z,3968
2018-07-02T08:56:49.720Z,3972
2018-07-02T08:57:59.833Z,3984
2018-07-02T08:59:09.644Z,3996
2018-07-02T09:00:19.735Z,4008
2018-07-02T09:01:29.538Z,4016
2018-07-02T09:02:39.627Z,4024
2018-07-02T09:03:49.479Z,4036
2018-07-02T09:04:59.360Z,4048
2018-07-02T09:06:08.919Z,4056
2018-07-02T09:07:18.736Z,4068
2018-07-02T09:08:28.820Z,4076
2018-07-02T09:09:38.788Z,4084
2018-07-02T09:10:48.612Z,4096
2018-07-02T09:11:58.694Z,4112
2018-07-02T09:13:08.492Z,4124
2018-07-02T09:14:18.348Z,4128
2018-07-02T09:15:27.956Z,4136
2018-07-02T09:16:37.760Z,4148
2018-07-02T09:17:47.677Z,4156
2018-07-02T09:18:57.595Z,4168
2018-07-02T09:20:07.426Z,4176
2018-07-02T09:21:17.277Z,4192
2018-07-02T09:22:27.366Z,4204
2018-07-02T09:23:36.893Z,4216
2018-07-02T09:24:46.958Z,4232
2018-07-02T09:25:57.063Z,4232
2018-07-02T09:27:06.921Z,4248
2018-07-02T09:28:16.997Z,4260
2018-07-02T09:29:26.808Z,4268
2018-07-02T09:30:36.884Z,4284
2018-07-02T09:31:46.690Z,4288
2018-07-02T09:32:56.557Z,4296
2018-07-02T09:34:06.107Z,4308
2018-07-02T09:35:15.905Z,4320
2018-07-02T09:36:25.997Z,4332
2018-07-02T09:37:35.533Z,4340
2018-07-02T09:38:45.117Z,4344
2018-07-02T09:39:55.086Z,4356
2018-07-02T09:41:05.174Z,4364
2018-07-02T09:42:15.001Z,4376
2018-07-02T09:43:24.820Z,4388
2018-07-02T09:44:34.937Z,4400
2018-07-02T09:45:45.041Z,4400
2018-07-02T09:46:54.962Z,4408
2018-07-02T09:48:05.189Z,4416
2018-07-02T09:49:15.269Z,4420
2018-07-02T09:50:25.397Z,4432
2018-07-02T09:51:35.465Z,4444
2018-07-02T09:52:45.006Z,4452
2018-07-02T09:53:54.529Z,4456
2018-07-02T09:55:04.624Z,4472
2018-07-02T09:56:14.202Z,4468
2018-07-02T09:57:24.283Z,4480
2018-07-02T09:58:34.354Z,4492
2018-07-02T09:59:44.496Z,4500
2018-07-02T10:00:54.042Z,4508
2018-07-02T10:02:04.429Z,4516
2018-07-02T10:03:14.558Z,4532
2018-07-02T10:04:24.351Z,4544
2018-07-02T10:05:34.429Z,4556
2018-07-02T10:06:44.475Z,4568
2018-07-02T10:07:54.604Z,4580
2018-07-02T10:09:04.675Z,4580
2018-07-02T10:10:14.620Z,4592
2018-07-02T10:11:24.828Z,4596
2018-07-02T10:12:34.499Z,4608
2018-07-02T10:13:44.701Z,4616
2018-07-02T10:14:54.505Z,4612
2018-07-02T10:16:04.574Z,4616
2018-07-02T10:17:14.374Z,4612
2018-07-02T10:18:24.464Z,4612
2018-07-02T10:19:34.601Z,4620
2018-07-02T10:20:44.672Z,4620
2018-07-02T10:21:54.747Z,4620
2018-07-02T10:23:04.555Z,4620
2018-07-02T10:24:14.089Z,4616
2018-07-02T10:25:23.671Z,4616
2018-07-02T10:26:33.223Z,4608
2018-07-02T10:27:43.043Z,4608
2018-07-02T10:28:53.113Z,4616
2018-07-02T10:30:03.181Z,4624
2018-07-02T10:31:13.023Z,4628
2018-07-02T10:32:23.273Z,4820
2018-07-02T10:33:33.068Z,4624
2018-07-02T10:34:42.945Z,4632
2018-07-02T10:35:52.847Z,4636
2018-07-02T10:37:02.706Z,4648
2018-07-02T10:38:12.501Z,4660
2018-07-02T10:39:22.313Z,4664
2018-07-02T10:40:32.106Z,4672
2018-07-02T10:41:42.198Z,4680
2018-07-02T10:42:52.305Z,4692
2018-07-02T10:44:02.384Z,4704
2018-07-02T10:45:11.914Z,4708
2018-07-02T10:46:21.723Z,4716
2018-07-02T10:47:31.266Z,4724
2018-07-02T10:48:41.111Z,4732
2018-07-02T10:49:51.206Z,4744
2018-07-02T10:51:01.035Z,4756
2018-07-02T10:52:11.107Z,4760
2018-07-02T10:53:20.906Z,4764
2018-07-02T10:54:31.034Z,4764
2018-07-02T10:55:40.962Z,4784
2018-07-02T10:56:50.775Z,4796
2018-07-02T10:58:00.839Z,4804
2018-07-02T10:59:10.929Z,4820
2018-07-02T11:00:20.804Z,4840
2018-07-02T11:01:30.820Z,4852
2018-07-02T11:02:40.358Z,4860
2018-07-02T11:03:50.204Z,4880
2018-07-02T11:05:00.286Z,4892
2018-07-02T11:06:10.178Z,4908
2018-07-02T11:07:19.986Z,4916
2018-07-02T11:08:30.063Z,4928
2018-07-02T11:09:40.131Z,4936
2018-07-02T11:10:50.199Z,4948
2018-07-02T11:12:00.069Z,4952
2018-07-02T11:13:10.145Z,4968
2018-07-02T11:14:19.719Z,4984
2018-07-02T11:15:29.248Z,5004
2018-07-02T11:16:39.325Z,5020
2018-07-02T11:17:49.446Z,5036
2018-07-02T11:18:59.256Z,5056
2018-07-02T11:20:08.788Z,5104
2018-07-02T11:21:18.589Z,5144
2018-07-02T11:22:28.400Z,5164
2018-07-02T11:23:38.046Z,5172
2018-07-02T11:24:47.858Z,5196
2018-07-02T11:25:57.675Z,5212
2018-07-02T11:27:07.743Z,5232
2018-07-02T11:28:17.556Z,5248
2018-07-02T11:29:27.405Z,5256
2018-07-02T11:30:37.204Z,5268
2018-07-02T11:31:47.314Z,5288
2018-07-02T11:32:57.137Z,5348
2018-07-02T11:34:06.960Z,5412
2018-07-02T11:35:16.544Z,5452
2018-07-02T11:36:25.807Z,5500
2018-07-02T11:37:35.455Z,5620
2018-07-02T11:38:45.346Z,6016
2018-07-02T11:39:54.889Z,6928
2018-07-02T11:41:04.758Z,10976
2018-07-02T11:42:14.565Z,58560
2018-07-02T11:43:24.646Z,92960
2018-07-02T11:44:34.718Z,94656
2018-07-02T11:45:44.793Z,92576
2018-07-02T11:46:54.645Z,95776
2018-07-02T11:48:04.735Z,96832
2018-07-02T11:49:14.811Z,94496
2018-07-02T11:50:24.893Z,95200
2018-07-02T11:51:34.974Z,94144
2018-07-02T11:52:44.849Z,97856
2018-07-02T11:53:54.919Z,95136
2018-07-02T11:55:04.735Z,94752
2018-07-02T11:56:14.844Z,101088
2018-07-02T11:57:25.006Z,93120
2018-07-02T11:58:34.915Z,91136
2018-07-02T11:59:45.025Z,95648
2018-07-02T12:00:55.111Z,97120
2018-07-02T12:02:05.486Z,96640
2018-07-02T12:03:15.306Z,94400
2018-07-02T12:04:24.986Z,98496
2018-07-02T12:05:34.522Z,92896
2018-07-02T12:06:44.322Z,94432
2018-07-02T12:07:54.144Z,91552
2018-07-02T12:09:03.961Z,91584
2018-07-02T12:10:14.102Z,90528
2018-07-02T12:11:24.185Z,89856
2018-07-02T12:12:33.984Z,92928
2018-07-02T12:13:43.796Z,94432
2018-07-02T12:14:53.884Z,94304
2018-07-02T12:16:03.214Z,91392
2018-07-02T12:17:13.299Z,81664
2018-07-02T12:18:23.137Z,80448
2018-07-02T12:19:32.687Z,82592
2018-07-02T12:20:42.747Z,87520
2018-07-02T12:21:52.623Z,80576
2018-07-02T12:23:02.188Z,82880
2018-07-02T12:24:11.735Z,86528
2018-07-02T12:25:21.532Z,89600
2018-07-02T12:26:31.089Z,92064
2018-07-02T12:27:41.228Z,97344
2018-07-02T12:28:51.034Z,95040
2018-07-02T12:30:00.884Z,93984
2018-07-02T12:31:10.953Z,93024
2018-07-02T12:32:21.049Z,91808
2018-07-02T12:33:31.072Z,86048
2018-07-02T12:34:41.052Z,80352
2018-07-02T12:35:50.614Z,78912
2018-07-02T12:37:00.718Z,66016
2018-07-02T12:38:10.804Z,59680
2018-07-02T12:39:20.136Z,64800
2018-07-02T12:40:30.232Z,75008
2018-07-02T12:41:40.059Z,83936
2018-07-02T12:42:49.883Z,89856
2018-07-02T12:43:59.707Z,88768
2018-07-02T12:45:09.582Z,88736
2018-07-02T12:46:19.684Z,88192
2018-07-02T12:47:29.766Z,90144
2018-07-02T12:48:39.586Z,88448
2018-07-02T12:49:49.677Z,84160
2018-07-02T12:50:59.526Z,82016
2018-07-02T12:52:09.343Z,86080
2018-07-02T12:53:19.426Z,91040
2018-07-02T12:54:30.204Z,90784
2018-07-02T12:55:40.029Z,95616
2018-07-02T12:56:50.162Z,97280
2018-07-02T12:57:59.975Z,90464
2018-07-02T12:59:10.087Z,90176
2018-07-02T13:00:20.186Z,92864
2018-07-02T13:01:30.280Z,95456
2018-07-02T13:02:40.445Z,97280
2018-07-02T13:03:49.724Z,98432
2018-07-02T13:04:59.270Z,96928
2018-07-02T13:06:08.826Z,96000
2018-07-02T13:07:18.114Z,96000
2018-07-02T13:08:27.723Z,95296
2018-07-02T13:09:37.540Z,96416
2018-07-02T13:10:47.369Z,97184
2018-07-02T13:11:56.922Z,98336
2018-07-02T13:13:06.486Z,97728
2018-07-02T13:14:16.356Z,99712
2018-07-02T13:15:26.455Z,100288
2018-07-02T13:16:36.548Z,99168
2018-07-02T13:17:46.112Z,89792
2018-07-02T13:18:55.916Z,89824
2018-07-02T13:20:06.061Z,89504
2018-07-02T13:21:16.331Z,88832
2018-07-02T13:22:26.221Z,89760
2018-07-02T13:23:36.043Z,91936
2018-07-02T13:24:46.176Z,93856
2018-07-02T13:25:56.340Z,90048
2018-07-02T13:27:06.474Z,90176
2018-07-02T13:28:16.580Z,90880
2018-07-02T13:29:26.665Z,91360
2018-07-02T13:30:35.939Z,88672
2018-07-02T13:31:45.838Z,92224
2018-07-02T13:32:55.958Z,88384
2018-07-02T13:34:06.051Z,82112
2018-07-02T13:35:15.890Z,84320
2018-07-02T13:36:25.990Z,86816
2018-07-02T13:37:35.918Z,85216
2018-07-02T13:38:45.797Z,82560
2018-07-02T13:39:55.085Z,84256
2018-07-02T13:41:05.184Z,87488
2018-07-02T13:42:14.760Z,88096
2018-07-02T13:43:24.913Z,91392
2018-07-02T13:44:34.481Z,95968
2018-07-02T13:45:44.591Z,96704
2018-07-02T13:46:54.705Z,95808
2018-07-02T13:48:04.260Z,95392
2018-07-02T13:49:14.180Z,95360
2018-07-02T13:50:23.742Z,95808
2018-07-02T13:51:33.587Z,95200
2018-07-02T13:52:43.680Z,98496
2018-07-02T13:53:53.779Z,105056
2018-07-02T13:55:03.653Z,109728
2018-07-02T13:56:13.747Z,104352
2018-07-02T13:57:23.858Z,99328
2018-07-02T13:58:33.143Z,96768
2018-07-02T13:59:43.249Z,93568
2018-07-02T14:00:53.392Z,91104
2018-07-02T14:02:02.952Z,94624
2018-07-02T14:03:12.774Z,98336
2018-07-02T14:04:22.891Z,98368
2018-07-02T14:05:33.001Z,84128
2018-07-02T14:06:43.159Z,88384
2018-07-02T14:07:53.262Z,95008
2018-07-02T14:09:03.359Z,93824
2018-07-02T14:10:12.912Z,92384
2018-07-02T14:11:22.727Z,89632
2018-07-02T14:12:32.863Z,89632
2018-07-02T14:13:42.970Z,81632
2018-07-02T14:14:53.061Z,86528
2018-07-02T14:16:02.880Z,86112
2018-07-02T14:17:12.727Z,78112
2018-07-02T14:18:22.893Z,82624
2018-07-02T14:19:32.446Z,87680
2018-07-02T14:20:42.248Z,87136
2018-07-02T14:21:52.335Z,87072
2018-07-02T14:23:02.156Z,80288
2018-07-02T14:24:11.766Z,73888
2018-07-02T14:25:21.623Z,82848
2018-07-02T14:26:31.183Z,83040
2018-07-02T14:27:41.015Z,83776
2018-07-02T14:28:50.584Z,85760
2018-07-02T14:30:00.455Z,85152
2018-07-02T14:31:10.029Z,86528
2018-07-02T14:32:19.865Z,85024
2018-07-02T14:33:29.944Z,84160
2018-07-02T14:34:39.227Z,82528
2018-07-02T14:35:48.840Z,80576
2018-07-02T14:36:58.932Z,69696
2018-07-02T14:38:08.761Z,72512
2018-07-02T14:39:19.077Z,78880
2018-07-02T14:40:29.278Z,80320
2018-07-02T14:41:39.151Z,76128
2018-07-02T14:42:48.715Z,78976
2018-07-02T14:43:58.819Z,80032
2018-07-02T14:45:10.057Z,82496
2018-07-02T14:46:20.336Z,84608
2018-07-02T14:47:29.924Z,84896
2018-07-02T14:48:39.470Z,86112
2018-07-02T14:49:49.574Z,85664
2018-07-02T14:50:59.462Z,86304
2018-07-02T14:52:09.675Z,80992
2018-07-02T14:53:19.823Z,74464
2018-07-02T14:54:29.653Z,76864
2018-07-02T14:55:39.474Z,73760
2018-07-02T14:56:49.305Z,71648
2018-07-02T14:57:59.409Z,73088
2018-07-02T14:59:09.289Z,74016
2018-07-02T15:00:19.571Z,82400
2018-07-02T15:01:29.415Z,95808
2018-07-02T15:02:39.528Z,85568
2018-07-02T15:03:49.353Z,66432
2018-07-02T15:04:59.748Z,48768
2018-07-02T15:06:09.866Z,41120
2018-07-02T15:07:19.709Z,42144
2018-07-02T15:08:29.548Z,43072
2018-07-02T15:09:39.370Z,44960
2018-07-02T15:10:49.567Z,47456
2018-07-02T15:11:59.686Z,49280
2018-07-02T15:13:09.256Z,48512
2018-07-02T15:14:19.061Z,50336
2018-07-02T15:15:28.969Z,54496
2018-07-02T15:16:38.927Z,60768
2018-07-02T15:17:48.751Z,69824
2018-07-02T15:18:58.585Z,69088
2018-07-02T15:20:08.436Z,54272
2018-07-02T15:21:18.544Z,49120
2018-07-02T15:22:28.428Z,49376
2018-07-02T15:23:37.710Z,47840
2018-07-02T15:24:47.548Z,47648
2018-07-02T15:25:57.363Z,31360
2018-07-02T15:27:07.198Z,38784
2018-07-02T15:28:17.090Z,35904
2018-07-02T15:29:26.909Z,27744
2018-07-02T15:30:36.467Z,25696
2018-07-02T15:31:46.015Z,29440
2018-07-02T15:32:56.135Z,32704
2018-07-02T15:34:05.985Z,23904
2018-07-02T15:35:16.093Z,29568
2018-07-02T15:36:25.906Z,36608
2018-07-02T15:37:35.460Z,54720
2018-07-02T15:38:45.545Z,36320